Time;durP1;ratioP1;P1;durP2;ratioP2;P2;SDS_P1;SDS_P2;PMS_P1;PMS_P2;Temp;Humidity;BMP_temperature;BMP_pressure;BME280_temperature;BME280_humidity;BME280_pressure;Samples;Min_cycle;Max_cycle;Signal;HPM_P1;HPM_P2
2020/12/25 00:00:44;;;;;;;8.93;2.80;;;5.70;89.70;;;;;;5051364;28;20082;-86
2020/12/25 00:03:14;;;;;;;7.47;3.47;;;5.70;89.20;;;;;;5051959;28;20505;-86
2020/12/25 00:05:44;;;;;;;7.90;3.10;;;5.60;89.50;;;;;;5051789;28;20032;-86
2020/12/25 00:08:09;;;;;;;6.65;2.70;;;5.70;89.30;;;;;;5051660;28;20025;-86
2020/12/25 00:10:35;;;;;;;10.00;3.07;;;5.70;89.00;;;;;;5052349;28;20056;-86
2020/12/25 00:13:00;;;;;;;11.17;3.30;;;5.60;89.40;;;;;;5052754;28;20115;-86
2020/12/25 00:15:33;;;;;;;6.63;2.90;;;5.60;89.10;;;;;;5053007;28;20035;-86
2020/12/25 00:17:58;;;;;;;12.07;3.60;;;5.60;88.80;;;;;;5063376;23;20023;-83
2020/12/25 00:20:24;;;;;;;10.40;2.87;;;5.60;88.70;;;;;;5033250;28;20109;-83
2020/12/25 00:22:49;;;;;;;8.83;3.60;;;5.80;88.70;;;;;;5033395;28;20370;-83
2020/12/25 00:25:15;;;;;;;7.63;2.50;;;5.80;88.10;;;;;;5033346;28;20057;-83
2020/12/25 00:27:41;;;;;;;9.73;2.63;;;5.90;87.60;;;;;;5015562;28;20112;-82
2020/12/25 00:30:06;;;;;;;7.77;2.83;;;5.70;87.30;;;;;;5014004;28;20029;-82
2020/12/25 00:32:32;;;;;;;9.37;2.50;;;5.80;86.80;;;;;;5033913;28;20037;-82
2020/12/25 00:34:57;;;;;;;5.80;2.90;;;5.80;86.80;;;;;;5015787;28;20029;-82
2020/12/25 00:37:23;;;;;;;9.77;2.27;;;5.70;86.70;;;;;;5033768;28;20162;-83
2020/12/25 00:39:49;;;;;;;8.83;2.80;;;5.70;86.40;;;;;;5032863;28;20124;-82
2020/12/25 00:42:15;;;;;;;8.97;2.30;;;5.70;86.00;;;;;;5033829;28;20041;-82
2020/12/25 00:44:40;;;;;;;9.60;2.80;;;5.70;86.10;;;;;;5015693;28;20113;-82
2020/12/25 00:47:06;;;;;;;10.70;2.87;;;5.70;86.50;;;;;;5033294;28;20040;-82
2020/12/25 00:49:32;;;;;;;7.83;2.67;;;5.60;85.90;;;;;;5033316;28;20060;-83
2020/12/25 00:51:57;;;;;;;8.13;2.70;;;5.80;85.40;;;;;;5033374;28;20493;-83
2020/12/25 00:54:23;;;;;;;7.67;2.50;;;5.70;85.30;;;;;;5033141;28;20033;-82
2020/12/25 00:56:48;;;;;;;7.73;2.50;;;5.80;85.10;;;;;;5033604;28;20208;-82
2020/12/25 00:59:14;;;;;;;9.47;3.20;;;5.80;85.00;;;;;;5015528;28;20022;-82
2020/12/25 01:01:39;;;;;;;5.27;2.20;;;5.70;84.50;;;;;;5033445;28;20389;-81
2020/12/25 01:04:05;;;;;;;9.23;2.30;;;5.40;86.00;;;;;;5032779;28;20033;-82
2020/12/25 01:06:31;;;;;;;6.77;2.53;;;5.50;85.60;;;;;;5033034;28;20124;-81
2020/12/25 01:08:56;;;;;;;6.63;2.20;;;5.50;85.80;;;;;;5032473;28;20044;-83
2020/12/25 01:11:27;;;;;;;10.63;2.57;;;5.30;86.60;;;;;;5033869;28;20079;-82
2020/12/25 01:13:53;;;;;;;9.50;2.40;;;5.50;85.30;;;;;;5032948;28;20029;-81
2020/12/25 01:16:19;;;;;;;8.37;2.00;;;5.50;85.60;;;;;;5033017;28;20098;-82
2020/12/25 01:18:46;;;;;;;7.67;2.60;;;5.60;85.00;;;;;;5014844;28;20037;-82
2020/12/25 01:21:13;;;;;;;7.17;2.37;;;5.50;85.50;;;;;;5032789;28;20521;-82
2020/12/25 01:23:39;;;;;;;5.80;2.10;;;5.50;85.60;;;;;;5015557;28;20536;-83
2020/12/25 01:26:07;;;;;;;9.00;2.63;;;5.50;85.50;;;;;;5032871;28;20033;-82
2020/12/25 01:28:34;;;;;;;6.47;2.77;;;5.40;85.50;;;;;;5032696;28;20466;-82
2020/12/25 01:31:02;;;;;;;6.10;2.30;;;5.40;86.30;;;;;;5032139;28;20026;-81
2020/12/25 01:33:37;;;;;;;10.52;2.40;;;5.20;86.30;;;;;;5032418;28;20080;-80
2020/12/25 01:36:04;;;;;;;9.20;2.40;;;5.20;86.50;;;;;;5032641;28;20029;-80
2020/12/25 01:38:30;;;;;;;7.40;2.17;;;5.20;86.30;;;;;;5014562;28;20033;-80
2020/12/25 01:40:55;;;;;;;10.87;2.53;;;5.30;86.20;;;;;;5031887;28;20056;-81
2020/12/25 01:43:21;;;;;;;9.03;2.40;;;5.30;85.90;;;;;;5035831;28;20386;-81
2020/12/25 01:45:46;;;;;;;6.33;2.10;;;5.50;85.60;;;;;;5036278;28;20030;-80
2020/12/25 01:48:12;;;;;;;9.67;2.13;;;5.40;85.10;;;;;;5036242;28;20461;-80
2020/12/25 01:50:38;;;;;;;7.10;2.33;;;5.40;85.00;;;;;;5035472;28;20104;-80
2020/12/25 01:53:05;;;;;;;9.13;1.93;;;5.50;84.70;;;;;;5036341;28;20372;-81
2020/12/25 01:55:33;;;;;;;7.53;1.80;;;5.30;84.80;;;;;;5036617;28;20057;-81
2020/12/25 01:58:00;;;;;;;6.33;1.60;;;5.40;85.80;;;;;;5036698;28;20031;-81
2020/12/25 02:00:30;;;;;;;8.13;2.13;;;5.30;84.60;;;;;;5017972;28;20026;-80
2020/12/25 02:02:56;;;;;;;9.60;2.10;;;5.40;84.80;;;;;;5035593;28;20033;-80
2020/12/25 02:05:23;;;;;;;9.37;2.10;;;5.30;84.10;;;;;;5035910;28;20024;-80
2020/12/25 02:07:49;;;;;;;9.47;1.80;;;5.10;85.40;;;;;;5035842;28;20021;-80
2020/12/25 02:10:14;;;;;;;7.90;2.27;;;5.20;85.50;;;;;;5035214;28;20389;-80
2020/12/25 02:12:41;;;;;;;7.13;1.83;;;5.40;84.80;;;;;;5036152;28;20436;-81
2020/12/25 02:15:07;;;;;;;8.17;2.10;;;5.30;84.20;;;;;;5018729;28;20503;-80
2020/12/25 02:17:33;;;;;;;9.63;2.53;;;5.20;84.70;;;;;;5018295;28;20025;-80
2020/12/25 02:20:02;;;;;;;7.53;2.20;;;5.20;84.30;;;;;;5017605;28;20485;-80
2020/12/25 02:22:28;;;;;;;9.82;1.92;;;5.30;84.80;;;;;;5018400;28;20028;-80
2020/12/25 02:24:54;;;;;;;10.13;2.10;;;5.20;84.70;;;;;;5036248;28;20022;-81
2020/12/25 02:27:19;;;;;;;8.00;1.73;;;5.30;84.30;;;;;;5036310;28;20032;-81
2020/12/25 02:29:45;;;;;;;11.87;2.20;;;5.40;84.00;;;;;;5035635;28;20493;-81
2020/12/25 02:32:11;;;;;;;7.10;1.67;;;5.30;84.10;;;;;;5036537;28;20021;-81
2020/12/25 02:34:37;;;;;;;5.10;1.77;;;5.10;85.30;;;;;;5036214;28;20083;-80
2020/12/25 02:37:02;;;;;;;7.13;1.87;;;5.10;85.20;;;;;;5017717;28;20543;-81
2020/12/25 02:39:31;;;;;;;9.03;1.70;;;5.20;85.70;;;;;;5035420;28;20505;-81
2020/12/25 02:41:57;;;;;;;5.68;1.60;;;5.30;85.30;;;;;;5018072;28;20036;-80
2020/12/25 02:44:22;;;;;;;11.77;2.90;;;5.30;84.80;;;;;;5035891;28;20072;-80
2020/12/25 02:46:49;;;;;;;11.30;2.37;;;5.20;85.10;;;;;;5035881;28;20026;-81
2020/12/25 02:49:14;;;;;;;13.57;2.63;;;5.20;85.10;;;;;;5035159;28;20022;-81
2020/12/25 02:51:40;;;;;;;8.20;2.50;;;5.20;85.40;;;;;;5017864;28;20432;-80
2020/12/25 02:54:06;;;;;;;7.63;2.10;;;5.20;85.70;;;;;;5034529;28;20030;-81
2020/12/25 02:56:31;;;;;;;9.10;2.70;;;5.20;85.40;;;;;;5035328;28;20029;-80
2020/12/25 02:58:57;;;;;;;10.63;2.47;;;5.10;85.70;;;;;;5034921;28;20029;-81
2020/12/25 03:01:22;;;;;;;8.20;2.10;;;5.10;85.70;;;;;;5035613;28;20029;-80
2020/12/25 03:03:48;;;;;;;9.30;2.20;;;5.10;86.00;;;;;;5036026;28;20053;-81
2020/12/25 03:06:13;;;;;;;15.60;2.10;;;5.20;85.70;;;;;;5018183;28;20072;-80
2020/12/25 03:08:39;;;;;;;15.47;2.70;;;5.20;85.50;;;;;;5036203;28;20032;-81
2020/12/25 03:11:05;;;;;;;10.13;2.70;;;5.40;84.90;;;;;;5037258;28;20429;-82
2020/12/25 03:13:30;;;;;;;13.77;2.73;;;5.20;84.70;;;;;;5019081;28;20029;-82
2020/12/25 03:15:56;;;;;;;10.70;2.40;;;5.20;84.50;;;;;;5035456;28;20585;-81
2020/12/25 03:18:21;;;;;;;11.20;3.00;;;5.20;85.20;;;;;;5034426;28;20037;-81
2020/12/25 03:20:47;;;;;;;8.43;1.97;;;5.10;85.40;;;;;;5016444;28;20040;-82
2020/12/25 03:23:13;;;;;;;10.10;2.23;;;5.10;85.30;;;;;;5035244;28;20029;-81
2020/12/25 03:25:40;;;;;;;10.83;2.77;;;5.00;85.20;;;;;;5035692;28;20025;-81
2020/12/25 03:28:05;;;;;;;10.17;2.10;;;5.00;85.50;;;;;;5035378;28;20025;-81
2020/12/25 03:30:31;;;;;;;11.87;2.67;;;4.90;85.80;;;;;;5016803;28;20033;-82
2020/12/25 03:32:57;;;;;;;12.17;2.87;;;5.00;86.00;;;;;;5035354;28;20030;-81
2020/12/25 03:35:23;;;;;;;11.57;2.60;;;5.00;86.20;;;;;;5035315;28;20492;-81
2020/12/25 03:37:49;;;;;;;12.43;2.13;;;4.90;85.60;;;;;;5018143;28;20445;-82
2020/12/25 03:40:15;;;;;;;10.77;2.10;;;4.80;85.90;;;;;;5034476;28;20032;-81
2020/12/25 03:42:43;;;;;;;7.43;2.07;;;4.80;86.10;;;;;;5034482;28;20032;-81
2020/12/25 03:45:08;;;;;;;10.80;2.20;;;4.90;85.90;;;;;;5035174;28;20017;-81
2020/12/25 03:47:34;;;;;;;15.20;2.33;;;4.70;86.40;;;;;;5017624;28;20140;-82
2020/12/25 03:49:59;;;;;;;11.17;2.27;;;4.70;86.40;;;;;;5034809;28;20021;-81
2020/12/25 03:52:25;;;;;;;20.13;2.73;;;4.80;86.60;;;;;;5035217;28;20470;-81
2020/12/25 03:54:50;;;;;;;11.33;2.00;;;4.90;86.30;;;;;;5035523;28;20021;-81
2020/12/25 03:57:17;;;;;;;11.17;2.53;;;4.70;86.30;;;;;;5035666;28;20036;-81
2020/12/25 03:59:42;;;;;;;19.70;4.97;;;4.60;87.00;;;;;;5017356;28;20074;-81
2020/12/25 04:02:08;;;;;;;11.17;2.40;;;4.70;86.80;;;;;;5035446;28;20465;-82
2020/12/25 04:04:33;;;;;;;14.50;2.43;;;4.60;86.70;;;;;;5035232;28;20036;-80
2020/12/25 04:06:59;;;;;;;12.40;2.77;;;4.40;87.80;;;;;;5035167;28;20025;-81
2020/12/25 04:09:25;;;;;;;13.53;2.60;;;4.50;88.00;;;;;;5034467;28;20030;-82
2020/12/25 04:11:50;;;;;;;15.10;2.60;;;4.60;87.20;;;;;;5017050;28;20022;-82
2020/12/25 04:14:17;;;;;;;8.67;2.30;;;4.70;86.50;;;;;;5035525;28;20048;-81
2020/12/25 04:16:43;;;;;;;16.90;2.70;;;4.70;87.30;;;;;;5017551;28;20025;-82
2020/12/25 04:19:08;;;;;;;11.07;2.03;;;4.70;86.70;;;;;;5034879;28;20041;-81
2020/12/25 04:21:35;;;;;;;10.93;1.80;;;4.70;86.10;;;;;;5035186;28;20071;-81
2020/12/25 04:24:01;;;;;;;8.17;2.53;;;4.60;86.30;;;;;;5035218;28;20025;-82
2020/12/25 04:26:26;;;;;;;11.47;2.10;;;4.70;86.40;;;;;;5034284;28;20029;-80
2020/12/25 04:28:52;;;;;;;8.77;2.13;;;4.60;86.80;;;;;;5034165;28;20100;-81
2020/12/25 04:31:17;;;;;;;15.20;1.97;;;4.60;86.70;;;;;;5033774;28;20017;-82
2020/12/25 04:33:43;;;;;;;9.17;2.27;;;4.60;86.70;;;;;;5016092;28;20029;-80
2020/12/25 04:36:09;;;;;;;11.73;2.20;;;4.60;86.10;;;;;;5034473;28;20036;-81
2020/12/25 04:38:34;;;;;;;11.30;3.07;;;4.50;86.10;;;;;;5034112;28;20057;-81
2020/12/25 04:41:01;;;;;;;10.60;2.20;;;4.50;86.40;;;;;;5016034;28;20120;-81
2020/12/25 04:43:27;;;;;;;11.67;2.10;;;4.50;86.20;;;;;;5034325;28;20152;-79
2020/12/25 04:45:54;;;;;;;12.60;2.60;;;4.40;86.40;;;;;;5018321;28;20073;-81
2020/12/25 04:48:20;;;;;;;14.97;3.30;;;4.30;87.60;;;;;;5016601;28;20043;-81
2020/12/25 04:50:45;;;;;;;11.90;2.60;;;4.50;87.40;;;;;;5034020;28;20037;-82
2020/12/25 04:53:11;;;;;;;10.50;2.27;;;4.50;86.40;;;;;;5033835;28;20414;-81
2020/12/25 04:55:37;;;;;;;9.93;1.70;;;4.50;86.50;;;;;;5034193;28;20045;-81
2020/12/25 04:58:02;;;;;;;8.57;2.27;;;4.60;86.10;;;;;;5033801;28;20061;-81
2020/12/25 05:00:28;;;;;;;8.13;1.90;;;4.60;86.10;;;;;;5015773;28;20600;-81
2020/12/25 05:02:54;;;;;;;8.47;1.90;;;4.60;85.70;;;;;;5033846;28;20390;-82
2020/12/25 05:05:30;;;;;;;10.70;2.20;;;4.50;85.80;;;;;;5034216;28;20071;-81
2020/12/25 05:08:00;;;;;;;8.03;1.57;;;4.60;85.50;;;;;;5015831;28;20026;-82
2020/12/25 05:10:27;;;;;;;9.60;2.30;;;4.60;85.20;;;;;;5015900;28;20032;-82
2020/12/25 05:12:53;;;;;;;12.53;2.37;;;4.60;85.60;;;;;;5033692;28;20441;-81
2020/12/25 05:15:19;;;;;;;11.30;2.10;;;4.60;85.60;;;;;;5033711;28;20117;-81
2020/12/25 05:17:45;;;;;;;9.63;2.10;;;4.60;84.90;;;;;;5036698;28;20029;-81
2020/12/25 05:20:11;;;;;;;11.40;2.10;;;4.60;85.50;;;;;;5037543;28;20474;-81
2020/12/25 05:22:37;;;;;;;11.63;2.13;;;4.60;85.40;;;;;;5037870;28;20059;-82
2020/12/25 05:25:05;;;;;;;9.53;2.47;;;4.60;85.20;;;;;;5020168;28;20026;-82
2020/12/25 05:27:34;;;;;;;9.03;1.70;;;4.60;85.50;;;;;;5037747;28;20079;-81
2020/12/25 05:30:01;;;;;;;7.63;1.67;;;4.60;85.40;;;;;;5019290;28;20465;-81
2020/12/25 05:32:31;;;;;;;12.00;1.90;;;4.60;84.90;;;;;;5037804;28;20100;-81
2020/12/25 05:34:57;;;;;;;11.93;1.80;;;4.50;85.50;;;;;;5037514;28;20017;-82
2020/12/25 05:37:35;;;;;;;14.60;2.27;;;4.40;85.90;;;;;;5038078;28;20037;-82
2020/12/25 05:40:04;;;;;;;13.17;2.60;;;4.50;85.90;;;;;;5019672;28;20060;-82
2020/12/25 05:42:44;;;;;;;7.75;1.92;;;4.60;85.90;;;;;;5038379;28;20031;-82
2020/12/25 05:45:09;;;;;;;15.50;2.88;;;4.50;85.60;;;;;;5037706;28;20029;-82
2020/12/25 05:47:35;;;;;;;13.37;2.00;;;4.50;85.80;;;;;;5037743;28;20112;-82
2020/12/25 05:50:01;;;;;;;14.77;2.00;;;4.50;85.70;;;;;;5037038;28;20034;-82
2020/12/25 05:52:26;;;;;;;12.60;1.97;;;4.50;85.10;;;;;;5037888;28;20061;-82
2020/12/25 05:54:55;;;;;;;12.27;2.17;;;4.50;85.10;;;;;;5038208;28;20026;-82
2020/12/25 05:57:21;;;;;;;11.43;2.33;;;4.50;85.80;;;;;;5037361;28;20083;-82
2020/12/25 05:59:47;;;;;;;10.07;2.13;;;4.50;85.70;;;;;;5018993;28;20120;-82
2020/12/25 06:02:15;;;;;;;11.77;2.47;;;4.50;85.70;;;;;;5037962;28;20057;-81
2020/12/25 06:04:41;;;;;;;9.27;2.10;;;4.50;85.00;;;;;;5019614;28;20029;-81
2020/12/25 06:07:10;;;;;;;9.10;2.30;;;4.30;86.00;;;;;;5037226;28;20428;-82
2020/12/25 06:09:44;;;;;;;12.80;2.00;;;4.40;86.10;;;;;;5019351;28;20025;-82
2020/12/25 06:12:14;;;;;;;8.83;2.10;;;4.50;86.00;;;;;;5019753;28;20028;-81
2020/12/25 06:14:39;;;;;;;6.37;1.80;;;4.50;85.70;;;;;;5019572;28;20025;-82
2020/12/25 06:17:19;;;;;;;7.13;1.50;;;4.60;85.60;;;;;;5019928;28;20405;-82
2020/12/25 06:19:55;;;;;;;7.87;2.00;;;4.60;85.60;;;;;;5049728;23;20413;-86
2020/12/25 06:22:40;;;;;;;15.07;2.60;;;4.60;84.90;;;;;;5017666;28;20070;-86
2020/12/25 06:25:12;;;;;;;9.57;1.83;;;4.60;85.10;;;;;;5017755;28;20029;-85
2020/12/25 06:27:48;;;;;;;10.43;2.50;;;4.50;86.20;;;;;;5034624;28;20021;-85
2020/12/25 06:30:25;;;;;;;12.03;2.50;;;4.60;85.90;;;;;;5016764;28;20029;-85
2020/12/25 06:32:56;;;;;;;12.97;2.97;;;4.60;85.80;;;;;;5038844;28;20508;-82
2020/12/25 06:35:37;;;;;;;9.27;2.13;;;4.60;85.60;;;;;;5038280;28;20025;-85
2020/12/25 06:38:26;;;;;;;7.40;1.90;;;4.60;85.70;;;;;;5019679;28;20063;-85
2020/12/25 06:40:58;;;;;;;;;;;4.60;86.00;;;;;;5020048;28;20029;-85
2020/12/25 06:43:24;;;;;;;12.17;2.37;;;4.60;85.70;;;;;;5037830;28;19909;-85
2020/12/25 06:46:02;;;;;;;11.63;2.57;;;4.60;86.00;;;;;;5020653;28;20032;-85
2020/12/25 06:48:29;;;;;;;12.63;2.30;;;4.50;86.10;;;;;;5020379;28;20021;-85
2020/12/25 06:50:59;;;;;;;13.43;2.30;;;4.60;86.20;;;;;;5019384;28;20029;-85
2020/12/25 06:53:42;;;;;;;10.23;2.60;;;4.60;86.40;;;;;;5019915;28;20048;-85
2020/12/25 06:56:09;;;;;;;10.63;2.87;;;4.60;86.30;;;;;;5020192;28;20033;-86
2020/12/25 06:58:41;;;;;;;11.60;3.00;;;4.70;86.40;;;;;;5019552;28;20029;-85
2020/12/25 07:01:07;;;;;;;11.53;2.63;;;4.70;86.20;;;;;;5037144;28;20075;-85
2020/12/25 07:03:34;;;;;;;11.97;2.83;;;4.80;86.40;;;;;;5037994;28;20025;-85
2020/12/25 07:06:01;;;;;;;13.27;2.97;;;4.70;86.40;;;;;;5019432;28;20022;-86
2020/12/25 07:08:32;;;;;;;10.03;2.70;;;4.60;86.60;;;;;;5020276;28;20444;-86
2020/12/25 07:11:09;;;;;;;11.70;2.90;;;4.60;86.80;;;;;;5037670;28;20413;-85
2020/12/25 07:13:36;;;;;;;8.73;2.73;;;4.50;87.60;;;;;;5020575;28;20036;-85
2020/12/25 07:16:02;;;;;;;10.67;2.90;;;4.50;87.00;;;;;;5038627;28;20026;-86
2020/12/25 07:18:28;;;;;;;8.23;2.37;;;4.60;87.20;;;;;;5019989;28;20155;-85
2020/12/25 07:20:59;;;;;;;6.73;2.57;;;4.50;87.40;;;;;;5019756;28;20037;-85
2020/12/25 07:23:25;;;;;;;7.93;3.07;;;4.50;87.60;;;;;;5019788;28;20059;-85
2020/12/25 07:25:53;;;;;;;9.27;3.27;;;4.40;87.70;;;;;;5020299;28;20390;-85
2020/12/25 07:28:23;;;;;;;10.40;2.70;;;4.40;87.50;;;;;;5037313;28;21695;-85
2020/12/25 07:30:49;;;;;;;11.83;3.13;;;4.50;87.30;;;;;;5035836;28;20087;-85
2020/12/25 07:33:15;;;;;;;10.53;3.00;;;4.50;87.70;;;;;;5018540;28;20030;-85
2020/12/25 07:35:41;;;;;;;13.47;3.17;;;4.50;87.80;;;;;;5017357;28;20485;-85
2020/12/25 07:38:07;;;;;;;15.20;3.23;;;4.60;88.10;;;;;;5017801;28;20025;-84
2020/12/25 07:40:34;;;;;;;13.47;2.57;;;4.60;87.60;;;;;;5022048;28;20022;-85
2020/12/25 07:43:03;;;;;;;12.10;2.60;;;4.70;87.80;;;;;;5038054;28;20029;-85
2020/12/25 07:45:32;;;;;;;10.32;2.05;;;4.60;87.70;;;;;;5024462;28;20024;-85
2020/12/25 07:47:58;;;;;;;9.32;1.70;;;4.60;87.20;;;;;;5016226;28;20057;-85
2020/12/25 07:50:24;;;;;;;9.37;1.80;;;4.50;88.00;;;;;;5016120;28;20496;-85
2020/12/25 07:52:49;;;;;;;10.67;1.90;;;4.60;87.90;;;;;;5016770;28;20025;-85
2020/12/25 07:55:19;;;;;;;5.53;1.50;;;4.50;87.90;;;;;;5017153;28;20036;-85
2020/12/25 07:57:48;;;;;;;8.57;1.83;;;4.50;87.90;;;;;;5034392;28;20026;-86
2020/12/25 08:00:14;;;;;;;14.65;4.82;;;4.50;88.00;;;;;;5015838;28;20056;-85
2020/12/25 08:02:42;;;;;;;12.10;4.30;;;4.30;88.40;;;;;;5016641;28;20363;-85
2020/12/25 08:05:18;;;;;;;11.67;2.63;;;4.40;89.10;;;;;;5035497;28;20067;-85
2020/12/25 08:08:03;;;;;;;8.00;2.23;;;4.40;88.50;;;;;;5033036;28;20034;-84
2020/12/25 08:10:30;;;;;;;7.37;1.43;;;4.40;88.40;;;;;;5016534;28;20026;-85
2020/12/25 08:12:58;;;;;;;6.93;2.70;;;4.50;87.40;;;;;;5018048;28;20025;-85
2020/12/25 08:15:25;;;;;;;9.53;1.93;;;4.50;87.30;;;;;;5034890;28;20025;-85
2020/12/25 08:18:00;;;;;;;7.00;1.50;;;4.40;87.50;;;;;;5033138;28;20039;-84
2020/12/25 08:20:26;;;;;;;6.20;1.47;;;4.40;87.60;;;;;;5039171;28;20028;-84
2020/12/25 08:23:01;;;;;;;4.80;1.20;;;4.30;87.80;;;;;;5036491;28;20029;-85
2020/12/25 08:25:32;;;;;;;7.53;1.40;;;4.40;87.60;;;;;;5036802;28;20044;-84
2020/12/25 08:27:58;;;;;;;8.57;1.67;;;4.40;87.70;;;;;;5034803;28;20497;-85
2020/12/25 08:30:25;;;;;;;4.57;1.43;;;4.40;87.40;;;;;;5025875;28;20032;-85
2020/12/25 08:32:58;;;;;;;8.67;1.70;;;4.30;87.80;;;;;;5035166;28;20030;-86
2020/12/25 08:35:27;;;;;;;8.80;2.07;;;4.30;87.50;;;;;;5032902;28;20104;-85
2020/12/25 08:37:57;;;;;;;8.18;1.75;;;4.20;87.80;;;;;;5032870;28;20108;-85
2020/12/25 08:40:23;;;;;;;6.87;1.50;;;4.30;88.00;;;;;;5032088;28;20398;-85
2020/12/25 08:42:51;;;;;;;6.77;1.60;;;4.20;87.30;;;;;;5032448;28;20082;-85
2020/12/25 08:45:21;;;;;;;4.30;1.40;;;4.30;88.20;;;;;;5015945;28;20021;-85
2020/12/25 08:48:08;;;;;;;9.70;2.13;;;4.10;88.40;;;;;;5016300;28;20021;-86
2020/12/25 08:50:34;;;;;;;8.53;1.90;;;4.10;88.40;;;;;;5033956;28;20039;-85
2020/12/25 08:53:22;;;;;;;6.17;2.20;;;4.10;88.40;;;;;;5016086;28;20549;-86
2020/12/25 08:55:49;;;;;;;5.33;1.70;;;4.10;88.90;;;;;;5015970;28;20034;-85
2020/12/25 08:58:36;;;;;;;7.03;2.10;;;4.20;88.80;;;;;;5018208;28;20029;-85
2020/12/25 09:01:03;;;;;;;9.10;2.27;;;4.20;88.80;;;;;;5028601;28;20070;-85
2020/12/25 09:03:40;;;;;;;10.57;2.60;;;4.40;88.60;;;;;;5026744;28;20029;-84
2020/12/25 09:06:08;;;;;;;10.80;2.57;;;4.40;88.30;;;;;;5028584;28;20024;-85
2020/12/25 09:08:37;;;;;;;11.77;2.63;;;4.50;88.60;;;;;;5028786;28;20022;-85
2020/12/25 09:11:11;;;;;;;11.57;3.27;;;4.50;88.20;;;;;;5026713;28;20026;-85
2020/12/25 09:13:37;;;;;;;10.97;2.87;;;4.50;88.60;;;;;;5027369;28;20057;-85
2020/12/25 09:16:04;;;;;;;9.37;3.33;;;4.60;88.40;;;;;;5025779;28;20055;-86
2020/12/25 09:18:29;;;;;;;9.17;2.90;;;4.60;88.10;;;;;;5025820;28;20475;-85
2020/12/25 09:20:55;;;;;;;8.60;2.70;;;4.70;87.90;;;;;;5042391;28;20062;-85
2020/12/25 09:23:21;;;;;;;11.17;3.13;;;4.70;87.70;;;;;;5044351;28;20374;-84
2020/12/25 09:25:47;;;;;;;8.73;2.70;;;4.70;87.10;;;;;;5026464;28;20104;-85
2020/12/25 09:28:12;;;;;;;11.43;2.50;;;4.70;87.10;;;;;;5027630;28;20517;-85
2020/12/25 09:30:38;;;;;;;10.53;2.53;;;4.70;87.50;;;;;;5026048;28;20215;-85
2020/12/25 09:33:04;;;;;;;8.33;2.13;;;4.80;88.00;;;;;;5026924;28;20097;-85
2020/12/25 09:35:29;;;;;;;10.67;2.40;;;4.80;87.30;;;;;;5026700;28;20540;-84
2020/12/25 09:37:55;;;;;;;12.93;2.47;;;4.80;87.50;;;;;;5044341;28;20039;-84
2020/12/25 09:40:21;;;;;;;15.70;2.77;;;4.80;87.30;;;;;;5022039;28;20030;-85
2020/12/25 09:42:46;;;;;;;10.20;2.80;;;4.70;87.40;;;;;;5042564;28;20052;-85
2020/12/25 09:45:12;;;;;;;10.07;3.00;;;4.70;87.90;;;;;;5043945;28;20025;-85
2020/12/25 09:47:38;;;;;;;22.53;3.00;;;4.80;87.80;;;;;;5041124;28;20025;-84
2020/12/25 09:50:04;;;;;;;10.67;2.50;;;4.70;87.50;;;;;;5021397;28;20029;-84
2020/12/25 09:52:29;;;;;;;10.13;3.17;;;4.80;87.60;;;;;;5018624;28;20033;-84
2020/12/25 09:54:55;;;;;;;11.33;3.50;;;4.80;87.50;;;;;;5031820;28;20030;-85
2020/12/25 09:57:22;;;;;;;12.30;3.73;;;4.80;87.60;;;;;;5014461;28;20033;-85
2020/12/25 09:59:48;;;;;;;14.37;3.73;;;4.90;87.60;;;;;;5015087;28;20040;-84
2020/12/25 10:02:14;;;;;;;11.97;3.70;;;4.90;87.10;;;;;;5033292;28;20017;-83
2020/12/25 10:04:42;;;;;;;14.57;4.00;;;5.00;87.20;;;;;;5040568;28;20060;-84
2020/12/25 10:07:08;;;;;;;14.00;4.73;;;5.00;87.10;;;;;;5040444;28;20492;-85
2020/12/25 10:09:33;;;;;;;16.03;4.63;;;5.10;86.50;;;;;;5017016;28;20030;-85
2020/12/25 10:11:59;;;;;;;12.40;4.50;;;5.10;86.20;;;;;;5035154;28;20339;-85
2020/12/25 10:14:24;;;;;;;13.80;4.90;;;5.00;86.60;;;;;;5017584;28;20033;-85
2020/12/25 10:16:50;;;;;;;13.20;4.87;;;5.10;86.90;;;;;;5017416;28;20123;-84
2020/12/25 10:19:16;;;;;;;11.10;5.03;;;5.10;86.20;;;;;;5016586;28;20041;-84
2020/12/25 10:21:42;;;;;;;16.53;5.17;;;5.20;86.20;;;;;;5017043;28;20516;-85
2020/12/25 10:24:07;;;;;;;14.47;5.23;;;5.20;86.00;;;;;;5034964;28;20052;-85
2020/12/25 10:26:33;;;;;;;15.47;4.43;;;5.30;85.30;;;;;;5017415;28;20021;-85
2020/12/25 10:28:58;;;;;;;19.00;4.70;;;5.30;85.10;;;;;;5034466;28;20025;-84
2020/12/25 10:31:24;;;;;;;12.13;3.70;;;5.20;84.50;;;;;;5034873;28;20029;-85
2020/12/25 10:33:50;;;;;;;11.50;4.27;;;5.20;84.70;;;;;;5017108;28;20036;-85
2020/12/25 10:36:15;;;;;;;13.80;3.50;;;5.20;84.60;;;;;;5017690;28;20124;-85
2020/12/25 10:38:41;;;;;;;12.57;3.03;;;5.10;84.60;;;;;;5016920;28;20028;-85
2020/12/25 10:41:08;;;;;;;16.27;3.03;;;5.20;85.20;;;;;;5034044;28;20036;-85
2020/12/25 10:43:35;;;;;;;9.83;2.40;;;5.20;85.10;;;;;;5016637;28;20026;-85
2020/12/25 10:46:00;;;;;;;10.70;2.27;;;5.20;85.20;;;;;;5034647;28;20013;-84
2020/12/25 10:48:26;;;;;;;11.93;2.47;;;5.20;85.40;;;;;;5016586;28;20043;-84
2020/12/25 10:50:52;;;;;;;13.17;2.73;;;5.10;85.50;;;;;;5016093;28;20478;-84
2020/12/25 10:53:17;;;;;;;11.20;1.90;;;5.10;85.60;;;;;;5034076;28;20025;-85
2020/12/25 10:55:43;;;;;;;8.73;1.87;;;5.10;85.90;;;;;;5034943;28;20022;-85
2020/12/25 10:58:08;;;;;;;10.53;1.50;;;5.10;85.90;;;;;;5017177;28;20052;-85
2020/12/25 11:00:34;;;;;;;8.87;1.70;;;5.00;85.80;;;;;;5016581;28;20047;-84
2020/12/25 11:03:00;;;;;;;6.70;2.07;;;4.90;86.00;;;;;;5016498;28;20031;-85
2020/12/25 11:05:25;;;;;;;10.03;1.70;;;5.00;86.40;;;;;;5017278;28;20044;-85
2020/12/25 11:07:51;;;;;;;8.00;1.70;;;5.00;86.40;;;;;;5016615;28;20108;-85
2020/12/25 11:10:16;;;;;;;9.53;2.37;;;5.00;86.60;;;;;;5034593;28;20109;-84
2020/12/25 11:12:42;;;;;;;17.00;5.90;;;5.10;86.20;;;;;;5016900;28;20025;-85
2020/12/25 11:15:08;;;;;;;18.50;7.23;;;5.00;86.90;;;;;;5016103;28;20719;-84
2020/12/25 11:17:33;;;;;;;15.70;3.97;;;5.00;86.50;;;;;;5016781;28;20116;-84
2020/12/25 11:19:59;;;;;;;11.37;2.30;;;5.00;86.40;;;;;;5015991;28;20036;-85
2020/12/25 11:22:24;;;;;;;13.13;2.63;;;5.10;86.20;;;;;;5033793;28;20037;-85
2020/12/25 11:24:50;;;;;;;11.00;1.90;;;5.10;85.50;;;;;;5016481;28;20025;-84
2020/12/25 11:27:16;;;;;;;7.53;2.00;;;5.10;84.60;;;;;;5016312;28;20471;-84
2020/12/25 11:29:42;;;;;;;9.93;1.87;;;5.10;84.60;;;;;;5015756;28;20026;-84
2020/12/25 11:32:07;;;;;;;10.60;2.00;;;5.20;84.40;;;;;;5016179;28;20025;-84
2020/12/25 11:34:33;;;;;;;7.00;1.97;;;5.20;84.70;;;;;;5016027;28;20032;-85
2020/12/25 11:36:58;;;;;;;12.43;2.20;;;5.30;84.60;;;;;;5033772;28;20037;-85
2020/12/25 11:39:24;;;;;;;8.77;2.03;;;5.30;84.30;;;;;;5016022;28;20033;-84
2020/12/25 11:41:50;;;;;;;11.50;2.40;;;5.20;83.80;;;;;;5015935;28;20125;-84
2020/12/25 11:44:15;;;;;;;9.73;2.03;;;5.30;83.90;;;;;;5015689;28;20120;-84
2020/12/25 11:46:41;;;;;;;12.47;2.37;;;5.30;84.00;;;;;;5015783;28;20051;-85
2020/12/25 11:49:08;;;;;;;9.07;1.90;;;5.30;83.50;;;;;;5015519;28;20077;-84
2020/12/25 11:51:34;;;;;;;11.93;1.53;;;5.30;83.60;;;;;;5015708;28;20398;-84
2020/12/25 11:54:00;;;;;;;17.87;2.30;;;5.20;83.60;;;;;;5034219;28;20060;-85
2020/12/25 11:56:30;;;;;;;8.47;1.90;;;5.30;82.90;;;;;;5016325;28;20072;-84
2020/12/25 11:59:00;;;;;;;11.45;2.55;;;5.20;83.00;;;;;;5033624;28;20402;-84
2020/12/25 12:01:26;;;;;;;16.60;2.87;;;5.30;83.50;;;;;;5015680;28;20044;-84
2020/12/25 12:03:51;;;;;;;8.43;2.53;;;5.20;83.60;;;;;;5015518;28;20022;-84
2020/12/25 12:06:21;;;;;;;12.03;1.90;;;5.30;84.00;;;;;;5015803;28;20022;-85
2020/12/25 12:08:48;;;;;;;10.50;1.70;;;5.30;83.30;;;;;;5015541;28;20041;-84
2020/12/25 12:11:14;;;;;;;11.80;2.00;;;5.30;83.60;;;;;;5015265;28;20021;-85
2020/12/25 12:13:41;;;;;;;14.07;2.30;;;5.40;83.60;;;;;;5033156;28;20040;-85
2020/12/25 12:16:14;;;;;;;5.57;1.97;;;5.40;83.20;;;;;;5015944;28;20029;-84
2020/12/25 12:18:40;;;;;;;9.53;1.90;;;5.40;83.00;;;;;;5015804;28;20033;-84
2020/12/25 12:21:08;;;;;;;14.53;2.13;;;5.40;83.10;;;;;;5016245;28;20029;-84
2020/12/25 12:23:34;;;;;;;11.90;1.90;;;5.40;83.20;;;;;;5015335;28;20429;-85
2020/12/25 12:25:59;;;;;;;10.33;1.33;;;5.40;83.30;;;;;;5015360;28;20075;-84
2020/12/25 12:28:25;;;;;;;5.40;1.50;;;5.50;83.00;;;;;;5033056;28;20029;-84
2020/12/25 12:30:50;;;;;;;8.87;1.70;;;5.50;82.70;;;;;;5032841;28;20502;-84
2020/12/25 12:33:16;;;;;;;6.30;1.60;;;5.40;82.50;;;;;;5034032;28;20029;-84
2020/12/25 12:35:42;;;;;;;6.43;1.60;;;5.40;82.00;;;;;;5015680;28;20066;-84
2020/12/25 12:38:08;;;;;;;12.80;2.13;;;5.50;82.00;;;;;;5015844;28;20550;-84
2020/12/25 12:40:33;;;;;;;10.60;1.50;;;5.50;82.30;;;;;;5018395;28;20107;-84
2020/12/25 12:43:02;;;;;;;7.77;1.70;;;5.60;82.60;;;;;;5032651;28;20160;-84
2020/12/25 12:45:27;;;;;;;7.73;1.80;;;5.60;82.70;;;;;;5014528;28;20030;-85
2020/12/25 12:47:53;;;;;;;7.70;1.30;;;5.60;82.40;;;;;;5033349;28;20028;-84
2020/12/25 12:50:19;;;;;;;8.67;2.37;;;5.60;82.30;;;;;;5033407;28;20397;-86
2020/12/25 12:52:45;;;;;;;8.97;1.83;;;5.50;81.70;;;;;;5015142;28;20025;-84